sensor_id;sensor_type;location;lat;lon;timestamp;P1;durP1;ratioP1;P2;durP2;ratioP2
28266;SDS011;15525;45.568;5.448;2022-12-11T00:00:44;47.83;;;19.33;;
28266;SDS011;15525;45.568;5.448;2022-12-11T00:03:10;44.60;;;19.38;;
28266;SDS011;15525;45.568;5.448;2022-12-11T00:05:37;37.72;;;17.75;;
28266;SDS011;15525;45.568;5.448;2022-12-11T00:08:03;46.15;;;19.20;;
28266;SDS011;15525;45.568;5.448;2022-12-11T00:10:29;42.75;;;18.52;;
28266;SDS011;15525;45.568;5.448;2022-12-11T00:12:54;46.88;;;18.50;;
28266;SDS011;15525;45.568;5.448;2022-12-11T00:15:19;48.40;;;19.80;;
28266;SDS011;15525;45.568;5.448;2022-12-11T00:17:45;47.28;;;19.50;;
28266;SDS011;15525;45.568;5.448;2022-12-11T00:20:10;46.55;;;19.80;;
28266;SDS011;15525;45.568;5.448;2022-12-11T00:22:36;49.40;;;20.00;;
28266;SDS011;15525;45.568;5.448;2022-12-11T00:25:01;46.85;;;19.00;;
28266;SDS011;15525;45.568;5.448;2022-12-11T00:27:27;47.03;;;20.02;;
28266;SDS011;15525;45.568;5.448;2022-12-11T00:29:52;47.03;;;19.10;;
28266;SDS011;15525;45.568;5.448;2022-12-11T00:32:18;48.55;;;19.25;;
28266;SDS011;15525;45.568;5.448;2022-12-11T00:34:43;46.25;;;18.52;;
28266;SDS011;15525;45.568;5.448;2022-12-11T00:37:11;48.47;;;19.25;;
28266;SDS011;15525;45.568;5.448;2022-12-11T00:39:36;54.33;;;20.23;;
28266;SDS011;15525;45.568;5.448;2022-12-11T00:42:04;45.20;;;19.00;;
28266;SDS011;15525;45.568;5.448;2022-12-11T00:44:30;48.50;;;19.48;;
28266;SDS011;15525;45.568;5.448;2022-12-11T00:46:55;48.13;;;19.27;;
28266;SDS011;15525;45.568;5.448;2022-12-11T00:49:21;47.25;;;18.63;;
28266;SDS011;15525;45.568;5.448;2022-12-11T00:51:46;45.45;;;18.95;;
28266;SDS011;15525;45.568;5.448;2022-12-11T00:54:12;51.28;;;20.02;;
28266;SDS011;15525;45.568;5.448;2022-12-11T00:56:37;52.83;;;20.15;;
28266;SDS011;15525;45.568;5.448;2022-12-11T00:59:03;50.05;;;19.58;;
28266;SDS011;15525;45.568;5.448;2022-12-11T01:01:29;54.95;;;19.65;;
28266;SDS011;15525;45.568;5.448;2022-12-11T01:03:54;47.75;;;19.67;;
28266;SDS011;15525;45.568;5.448;2022-12-11T01:06:23;49.65;;;19.40;;
28266;SDS011;15525;45.568;5.448;2022-12-11T01:08:50;52.95;;;20.45;;
28266;SDS011;15525;45.568;5.448;2022-12-11T01:11:35;48.30;;;19.58;;
28266;SDS011;15525;45.568;5.448;2022-12-11T01:14:00;60.72;;;27.42;;
28266;SDS011;15525;45.568;5.448;2022-12-11T01:16:25;50.40;;;20.15;;
28266;SDS011;15525;45.568;5.448;2022-12-11T01:18:51;44.97;;;18.83;;
28266;SDS011;15525;45.568;5.448;2022-12-11T01:21:16;49.28;;;20.48;;
28266;SDS011;15525;45.568;5.448;2022-12-11T01:23:41;51.13;;;20.30;;
28266;SDS011;15525;45.568;5.448;2022-12-11T01:26:07;47.63;;;20.33;;
28266;SDS011;15525;45.568;5.448;2022-12-11T01:28:35;54.25;;;20.38;;
28266;SDS011;15525;45.568;5.448;2022-12-11T01:31:01;50.05;;;19.50;;
28266;SDS011;15525;45.568;5.448;2022-12-11T01:33:27;50.50;;;20.85;;
28266;SDS011;15525;45.568;5.448;2022-12-11T01:35:53;46.40;;;19.30;;
28266;SDS011;15525;45.568;5.448;2022-12-11T01:38:18;49.70;;;20.17;;
28266;SDS011;15525;45.568;5.448;2022-12-11T01:40:48;49.22;;;20.63;;
28266;SDS011;15525;45.568;5.448;2022-12-11T01:43:14;46.40;;;19.33;;
28266;SDS011;15525;45.568;5.448;2022-12-11T01:45:43;51.70;;;19.77;;
28266;SDS011;15525;45.568;5.448;2022-12-11T01:48:13;50.53;;;19.23;;
28266;SDS011;15525;45.568;5.448;2022-12-11T01:51:17;50.30;;;19.33;;
28266;SDS011;15525;45.568;5.448;2022-12-11T01:53:38;50.08;;;19.55;;
28266;SDS011;15525;45.568;5.448;2022-12-11T01:56:06;49.00;;;19.02;;
28266;SDS011;15525;45.568;5.448;2022-12-11T01:58:43;47.03;;;20.10;;
28266;SDS011;15525;45.568;5.448;2022-12-11T02:01:13;45.88;;;19.02;;
28266;SDS011;15525;45.568;5.448;2022-12-11T02:03:44;52.80;;;20.23;;
28266;SDS011;15525;45.568;5.448;2022-12-11T02:08:58;47.15;;;19.38;;
28266;SDS011;15525;45.568;5.448;2022-12-11T02:11:26;49.47;;;20.08;;
28266;SDS011;15525;45.568;5.448;2022-12-11T02:14:27;57.20;;;20.77;;
28266;SDS011;15525;45.568;5.448;2022-12-11T02:17:10;49.90;;;20.35;;
28266;SDS011;15525;45.568;5.448;2022-12-11T02:22:21;52.75;;;20.00;;
28266;SDS011;15525;45.568;5.448;2022-12-11T02:25:02;50.58;;;20.63;;
28266;SDS011;15525;45.568;5.448;2022-12-11T02:27:49;52.38;;;20.75;;
28266;SDS011;15525;45.568;5.448;2022-12-11T02:30:21;53.30;;;21.40;;
28266;SDS011;15525;45.568;5.448;2022-12-11T02:32:52;52.72;;;19.98;;
28266;SDS011;15525;45.568;5.448;2022-12-11T02:38:27;52.45;;;20.60;;
28266;SDS011;15525;45.568;5.448;2022-12-11T02:40:57;53.40;;;19.88;;
28266;SDS011;15525;45.568;5.448;2022-12-11T02:43:24;54.22;;;19.77;;
28266;SDS011;15525;45.568;5.448;2022-12-11T02:45:51;51.85;;;20.33;;
28266;SDS011;15525;45.568;5.448;2022-12-11T02:48:18;53.20;;;20.48;;
28266;SDS011;15525;45.568;5.448;2022-12-11T02:50:47;51.42;;;19.98;;
28266;SDS011;15525;45.568;5.448;2022-12-11T02:53:17;55.00;;;20.98;;
28266;SDS011;15525;45.568;5.448;2022-12-11T02:55:45;53.40;;;20.38;;
28266;SDS011;15525;45.568;5.448;2022-12-11T02:58:16;57.05;;;21.35;;
28266;SDS011;15525;45.568;5.448;2022-12-11T03:00:44;51.80;;;20.10;;
28266;SDS011;15525;45.568;5.448;2022-12-11T03:03:10;53.70;;;20.13;;
28266;SDS011;15525;45.568;5.448;2022-12-11T03:05:36;51.67;;;20.20;;
28266;SDS011;15525;45.568;5.448;2022-12-11T03:08:02;55.03;;;20.35;;
28266;SDS011;15525;45.568;5.448;2022-12-11T03:10:28;57.20;;;21.05;;
28266;SDS011;15525;45.568;5.448;2022-12-11T03:12:54;50.95;;;19.98;;
28266;SDS011;15525;45.568;5.448;2022-12-11T03:15:26;48.05;;;19.73;;
28266;SDS011;15525;45.568;5.448;2022-12-11T03:18:22;49.75;;;19.48;;
28266;SDS011;15525;45.568;5.448;2022-12-11T03:21:07;54.47;;;19.65;;
28266;SDS011;15525;45.568;5.448;2022-12-11T03:23:56;60.58;;;21.23;;
28266;SDS011;15525;45.568;5.448;2022-12-11T03:26:29;54.17;;;21.30;;
28266;SDS011;15525;45.568;5.448;2022-12-11T03:29:01;54.05;;;20.73;;
28266;SDS011;15525;45.568;5.448;2022-12-11T03:31:38;51.08;;;20.30;;
28266;SDS011;15525;45.568;5.448;2022-12-11T03:34:11;50.70;;;19.90;;
28266;SDS011;15525;45.568;5.448;2022-12-11T03:36:42;50.88;;;19.48;;
28266;SDS011;15525;45.568;5.448;2022-12-11T03:39:11;50.28;;;19.90;;
28266;SDS011;15525;45.568;5.448;2022-12-11T03:41:41;50.70;;;19.92;;
28266;SDS011;15525;45.568;5.448;2022-12-11T03:44:09;51.30;;;20.45;;
28266;SDS011;15525;45.568;5.448;2022-12-11T03:46:37;47.03;;;18.80;;
28266;SDS011;15525;45.568;5.448;2022-12-11T03:49:06;50.80;;;19.30;;
28266;SDS011;15525;45.568;5.448;2022-12-11T03:51:34;51.00;;;20.55;;
28266;SDS011;15525;45.568;5.448;2022-12-11T03:54:01;47.22;;;19.27;;
28266;SDS011;15525;45.568;5.448;2022-12-11T03:56:27;52.40;;;20.48;;
28266;SDS011;15525;45.568;5.448;2022-12-11T03:58:56;50.42;;;19.65;;
28266;SDS011;15525;45.568;5.448;2022-12-11T04:01:22;47.13;;;19.73;;
28266;SDS011;15525;45.568;5.448;2022-12-11T04:03:47;51.97;;;20.60;;
28266;SDS011;15525;45.568;5.448;2022-12-11T04:06:13;50.53;;;19.70;;
28266;SDS011;15525;45.568;5.448;2022-12-11T04:08:38;52.08;;;20.50;;
28266;SDS011;15525;45.568;5.448;2022-12-11T04:11:04;49.35;;;19.42;;
28266;SDS011;15525;45.568;5.448;2022-12-11T04:13:48;50.10;;;19.73;;
28266;SDS011;15525;45.568;5.448;2022-12-11T04:16:33;51.08;;;19.80;;
28266;SDS011;15525;45.568;5.448;2022-12-11T04:18:58;50.22;;;19.63;;
28266;SDS011;15525;45.568;5.448;2022-12-11T04:21:42;51.28;;;19.83;;
28266;SDS011;15525;45.568;5.448;2022-12-11T04:24:26;49.17;;;19.83;;
28266;SDS011;15525;45.568;5.448;2022-12-11T04:26:52;47.97;;;19.70;;
28266;SDS011;15525;45.568;5.448;2022-12-11T04:29:17;49.08;;;19.55;;
28266;SDS011;15525;45.568;5.448;2022-12-11T04:31:42;51.38;;;19.30;;
28266;SDS011;15525;45.568;5.448;2022-12-11T04:34:09;51.75;;;20.17;;
28266;SDS011;15525;45.568;5.448;2022-12-11T04:36:35;54.72;;;21.05;;
28266;SDS011;15525;45.568;5.448;2022-12-11T04:39:00;54.40;;;20.77;;
28266;SDS011;15525;45.568;5.448;2022-12-11T04:41:26;57.22;;;20.65;;
28266;SDS011;15525;45.568;5.448;2022-12-11T04:43:51;50.78;;;20.15;;
28266;SDS011;15525;45.568;5.448;2022-12-11T04:46:18;56.50;;;21.27;;
28266;SDS011;15525;45.568;5.448;2022-12-11T04:48:45;52.00;;;20.80;;
28266;SDS011;15525;45.568;5.448;2022-12-11T04:51:11;52.78;;;21.02;;
28266;SDS011;15525;45.568;5.448;2022-12-11T04:53:36;56.78;;;20.92;;
28266;SDS011;15525;45.568;5.448;2022-12-11T04:56:06;51.40;;;20.17;;
28266;SDS011;15525;45.568;5.448;2022-12-11T04:58:33;53.45;;;19.83;;
28266;SDS011;15525;45.568;5.448;2022-12-11T05:00:59;52.83;;;19.77;;
28266;SDS011;15525;45.568;5.448;2022-12-11T05:03:25;50.90;;;20.17;;
28266;SDS011;15525;45.568;5.448;2022-12-11T05:05:51;55.22;;;20.73;;
28266;SDS011;15525;45.568;5.448;2022-12-11T05:08:18;57.13;;;21.48;;
28266;SDS011;15525;45.568;5.448;2022-12-11T05:10:53;55.08;;;21.10;;
28266;SDS011;15525;45.568;5.448;2022-12-11T05:13:29;56.65;;;19.40;;
28266;SDS011;15525;45.568;5.448;2022-12-11T05:15:56;50.50;;;19.70;;
28266;SDS011;15525;45.568;5.448;2022-12-11T05:18:22;57.28;;;21.00;;
28266;SDS011;15525;45.568;5.448;2022-12-11T05:20:58;56.33;;;20.88;;
28266;SDS011;15525;45.568;5.448;2022-12-11T05:23:26;56.47;;;21.73;;
28266;SDS011;15525;45.568;5.448;2022-12-11T05:25:52;59.85;;;21.50;;
28266;SDS011;15525;45.568;5.448;2022-12-11T05:28:19;53.75;;;20.20;;
28266;SDS011;15525;45.568;5.448;2022-12-11T05:30:44;55.15;;;20.70;;
28266;SDS011;15525;45.568;5.448;2022-12-11T05:33:10;58.40;;;21.05;;
28266;SDS011;15525;45.568;5.448;2022-12-11T05:35:35;50.88;;;19.33;;
28266;SDS011;15525;45.568;5.448;2022-12-11T05:38:01;58.30;;;21.35;;
28266;SDS011;15525;45.568;5.448;2022-12-11T05:40:26;56.78;;;22.05;;
28266;SDS011;15525;45.568;5.448;2022-12-11T05:42:51;58.65;;;20.45;;
28266;SDS011;15525;45.568;5.448;2022-12-11T05:45:17;55.90;;;21.23;;
28266;SDS011;15525;45.568;5.448;2022-12-11T05:47:42;55.70;;;21.35;;
28266;SDS011;15525;45.568;5.448;2022-12-11T05:50:08;52.22;;;20.42;;
28266;SDS011;15525;45.568;5.448;2022-12-11T05:52:34;57.38;;;20.95;;
28266;SDS011;15525;45.568;5.448;2022-12-11T05:55:00;61.03;;;22.23;;
28266;SDS011;15525;45.568;5.448;2022-12-11T05:57:25;57.55;;;22.58;;
28266;SDS011;15525;45.568;5.448;2022-12-11T05:59:51;62.75;;;22.40;;
28266;SDS011;15525;45.568;5.448;2022-12-11T06:02:16;65.70;;;20.92;;
28266;SDS011;15525;45.568;5.448;2022-12-11T06:04:41;56.40;;;21.00;;
28266;SDS011;15525;45.568;5.448;2022-12-11T06:07:07;62.28;;;21.23;;
28266;SDS011;15525;45.568;5.448;2022-12-11T06:09:32;59.50;;;21.42;;
28266;SDS011;15525;45.568;5.448;2022-12-11T06:11:58;58.25;;;21.02;;
28266;SDS011;15525;45.568;5.448;2022-12-11T06:14:23;58.40;;;21.33;;
28266;SDS011;15525;45.568;5.448;2022-12-11T06:16:48;56.88;;;21.63;;
28266;SDS011;15525;45.568;5.448;2022-12-11T06:19:14;64.50;;;22.77;;
28266;SDS011;15525;45.568;5.448;2022-12-11T06:21:42;59.35;;;20.67;;
28266;SDS011;15525;45.568;5.448;2022-12-11T06:24:09;61.00;;;21.63;;
28266;SDS011;15525;45.568;5.448;2022-12-11T06:26:35;56.45;;;21.30;;
28266;SDS011;15525;45.568;5.448;2022-12-11T06:29:00;60.40;;;21.08;;
28266;SDS011;15525;45.568;5.448;2022-12-11T06:31:26;55.88;;;22.75;;
28266;SDS011;15525;45.568;5.448;2022-12-11T06:33:51;59.10;;;21.75;;
28266;SDS011;15525;45.568;5.448;2022-12-11T06:36:19;59.33;;;20.48;;
28266;SDS011;15525;45.568;5.448;2022-12-11T06:38:46;53.92;;;20.33;;
28266;SDS011;15525;45.568;5.448;2022-12-11T06:41:12;51.97;;;20.65;;
28266;SDS011;15525;45.568;5.448;2022-12-11T06:43:38;57.15;;;20.88;;
28266;SDS011;15525;45.568;5.448;2022-12-11T06:46:04;61.60;;;21.48;;
28266;SDS011;15525;45.568;5.448;2022-12-11T06:48:31;62.13;;;21.63;;
28266;SDS011;15525;45.568;5.448;2022-12-11T06:50:57;58.40;;;21.05;;
28266;SDS011;15525;45.568;5.448;2022-12-11T06:53:22;58.63;;;21.65;;
28266;SDS011;15525;45.568;5.448;2022-12-11T06:55:47;55.40;;;20.52;;
28266;SDS011;15525;45.568;5.448;2022-12-11T06:58:13;55.30;;;20.35;;
28266;SDS011;15525;45.568;5.448;2022-12-11T07:00:38;63.47;;;22.10;;
28266;SDS011;15525;45.568;5.448;2022-12-11T07:03:04;59.53;;;21.15;;
28266;SDS011;15525;45.568;5.448;2022-12-11T07:05:30;59.33;;;20.73;;
28266;SDS011;15525;45.568;5.448;2022-12-11T07:07:56;57.25;;;22.17;;
28266;SDS011;15525;45.568;5.448;2022-12-11T07:10:22;64.03;;;21.17;;
28266;SDS011;15525;45.568;5.448;2022-12-11T07:12:48;57.28;;;21.58;;
28266;SDS011;15525;45.568;5.448;2022-12-11T07:15:16;61.00;;;20.83;;
28266;SDS011;15525;45.568;5.448;2022-12-11T07:17:41;64.05;;;21.65;;
28266;SDS011;15525;45.568;5.448;2022-12-11T07:20:07;60.45;;;21.83;;
28266;SDS011;15525;45.568;5.448;2022-12-11T07:22:33;67.68;;;22.63;;
28266;SDS011;15525;45.568;5.448;2022-12-11T07:24:58;61.53;;;20.17;;
28266;SDS011;15525;45.568;5.448;2022-12-11T07:27:24;57.95;;;21.08;;
28266;SDS011;15525;45.568;5.448;2022-12-11T07:29:49;61.20;;;22.00;;
28266;SDS011;15525;45.568;5.448;2022-12-11T07:32:15;57.65;;;20.70;;
28266;SDS011;15525;45.568;5.448;2022-12-11T07:34:40;60.65;;;20.98;;
28266;SDS011;15525;45.568;5.448;2022-12-11T07:37:06;61.50;;;20.65;;
28266;SDS011;15525;45.568;5.448;2022-12-11T07:39:31;56.85;;;21.23;;
28266;SDS011;15525;45.568;5.448;2022-12-11T07:41:57;55.60;;;20.23;;
28266;SDS011;15525;45.568;5.448;2022-12-11T07:44:22;63.00;;;22.55;;
28266;SDS011;15525;45.568;5.448;2022-12-11T07:46:48;63.63;;;22.23;;
28266;SDS011;15525;45.568;5.448;2022-12-11T07:49:13;61.90;;;22.58;;
28266;SDS011;15525;45.568;5.448;2022-12-11T07:51:38;54.90;;;21.10;;
28266;SDS011;15525;45.568;5.448;2022-12-11T07:54:09;59.65;;;21.05;;
28266;SDS011;15525;45.568;5.448;2022-12-11T07:56:38;56.58;;;20.45;;
28266;SDS011;15525;45.568;5.448;2022-12-11T07:59:04;59.50;;;22.40;;
28266;SDS011;15525;45.568;5.448;2022-12-11T08:01:31;57.70;;;21.65;;
28266;SDS011;15525;45.568;5.448;2022-12-11T08:03:59;60.58;;;22.58;;
28266;SDS011;15525;45.568;5.448;2022-12-11T08:06:29;60.10;;;22.80;;
28266;SDS011;15525;45.568;5.448;2022-12-11T08:08:56;60.35;;;21.90;;
28266;SDS011;15525;45.568;5.448;2022-12-11T08:11:23;53.50;;;20.17;;
28266;SDS011;15525;45.568;5.448;2022-12-11T08:13:50;55.75;;;20.35;;
28266;SDS011;15525;45.568;5.448;2022-12-11T08:16:16;57.60;;;20.33;;
28266;SDS011;15525;45.568;5.448;2022-12-11T08:18:42;56.55;;;20.30;;
28266;SDS011;15525;45.568;5.448;2022-12-11T08:21:09;60.17;;;22.00;;
28266;SDS011;15525;45.568;5.448;2022-12-11T08:23:36;58.20;;;20.98;;
28266;SDS011;15525;45.568;5.448;2022-12-11T08:26:03;62.85;;;22.45;;
28266;SDS011;15525;45.568;5.448;2022-12-11T08:28:30;57.80;;;21.40;;
28266;SDS011;15525;45.568;5.448;2022-12-11T08:30:56;58.03;;;23.00;;
28266;SDS011;15525;45.568;5.448;2022-12-11T08:33:22;65.82;;;23.15;;
28266;SDS011;15525;45.568;5.448;2022-12-11T08:35:47;60.50;;;21.85;;
28266;SDS011;15525;45.568;5.448;2022-12-11T08:38:13;61.03;;;21.95;;
28266;SDS011;15525;45.568;5.448;2022-12-11T08:40:38;55.80;;;20.08;;
28266;SDS011;15525;45.568;5.448;2022-12-11T08:43:03;57.08;;;20.80;;
28266;SDS011;15525;45.568;5.448;2022-12-11T08:45:29;58.70;;;21.27;;
28266;SDS011;15525;45.568;5.448;2022-12-11T08:47:54;55.88;;;20.65;;
28266;SDS011;15525;45.568;5.448;2022-12-11T08:50:20;56.95;;;20.10;;
28266;SDS011;15525;45.568;5.448;2022-12-11T08:52:45;62.65;;;21.52;;
28266;SDS011;15525;45.568;5.448;2022-12-11T08:55:10;59.05;;;20.73;;
28266;SDS011;15525;45.568;5.448;2022-12-11T08:57:36;56.92;;;20.63;;
28266;SDS011;15525;45.568;5.448;2022-12-11T09:00:04;51.17;;;18.45;;
28266;SDS011;15525;45.568;5.448;2022-12-11T09:02:30;57.88;;;20.77;;
28266;SDS011;15525;45.568;5.448;2022-12-11T09:04:56;60.15;;;21.50;;
28266;SDS011;15525;45.568;5.448;2022-12-11T09:07:21;56.40;;;19.70;;
28266;SDS011;15525;45.568;5.448;2022-12-11T09:09:47;54.72;;;20.77;;
28266;SDS011;15525;45.568;5.448;2022-12-11T09:12:12;56.60;;;21.88;;
28266;SDS011;15525;45.568;5.448;2022-12-11T09:14:38;51.95;;;20.38;;
28266;SDS011;15525;45.568;5.448;2022-12-11T09:17:03;54.00;;;20.42;;
28266;SDS011;15525;45.568;5.448;2022-12-11T09:19:29;50.30;;;17.75;;
28266;SDS011;15525;45.568;5.448;2022-12-11T09:21:55;57.45;;;19.63;;
28266;SDS011;15525;45.568;5.448;2022-12-11T09:24:20;54.65;;;20.40;;
28266;SDS011;15525;45.568;5.448;2022-12-11T09:26:46;55.25;;;20.70;;
28266;SDS011;15525;45.568;5.448;2022-12-11T09:29:11;57.88;;;21.80;;
28266;SDS011;15525;45.568;5.448;2022-12-11T09:31:37;54.50;;;20.27;;
28266;SDS011;15525;45.568;5.448;2022-12-11T09:34:04;58.05;;;22.08;;
28266;SDS011;15525;45.568;5.448;2022-12-11T09:36:32;57.25;;;20.75;;
28266;SDS011;15525;45.568;5.448;2022-12-11T09:39:02;56.20;;;20.10;;
28266;SDS011;15525;45.568;5.448;2022-12-11T09:46:35;54.10;;;20.33;;
28266;SDS011;15525;45.568;5.448;2022-12-11T09:49:02;51.58;;;20.40;;
28266;SDS011;15525;45.568;5.448;2022-12-11T09:51:38;53.28;;;19.80;;
28266;SDS011;15525;45.568;5.448;2022-12-11T09:54:09;51.73;;;19.67;;
28266;SDS011;15525;45.568;5.448;2022-12-11T09:59:27;52.05;;;19.92;;
28266;SDS011;15525;45.568;5.448;2022-12-11T10:04:55;54.15;;;19.48;;
28266;SDS011;15525;45.568;5.448;2022-12-11T10:07:46;56.40;;;19.23;;
28266;SDS011;15525;45.568;5.448;2022-12-11T10:10:19;52.30;;;19.42;;
28266;SDS011;15525;45.568;5.448;2022-12-11T10:13:03;54.22;;;19.25;;
28266;SDS011;15525;45.568;5.448;2022-12-11T10:15:45;51.72;;;19.35;;
28266;SDS011;15525;45.568;5.448;2022-12-11T10:18:19;51.72;;;20.63;;
28266;SDS011;15525;45.568;5.448;2022-12-11T10:20:47;52.05;;;19.88;;
28266;SDS011;15525;45.568;5.448;2022-12-11T10:23:18;51.75;;;20.70;;
28266;SDS011;15525;45.568;5.448;2022-12-11T10:25:56;54.90;;;19.70;;
28266;SDS011;15525;45.568;5.448;2022-12-11T10:28:28;50.60;;;19.15;;
28266;SDS011;15525;45.568;5.448;2022-12-11T10:31:00;52.97;;;20.10;;
28266;SDS011;15525;45.568;5.448;2022-12-11T10:36:09;47.05;;;19.02;;
28266;SDS011;15525;45.568;5.448;2022-12-11T10:38:42;49.25;;;18.75;;
28266;SDS011;15525;45.568;5.448;2022-12-11T10:41:10;55.92;;;20.10;;
28266;SDS011;15525;45.568;5.448;2022-12-11T10:43:46;48.90;;;19.42;;
28266;SDS011;15525;45.568;5.448;2022-12-11T10:48:47;49.88;;;18.70;;
28266;SDS011;15525;45.568;5.448;2022-12-11T10:51:14;51.40;;;19.75;;
28266;SDS011;15525;45.568;5.448;2022-12-11T10:53:40;51.97;;;20.00;;
28266;SDS011;15525;45.568;5.448;2022-12-11T10:56:07;52.58;;;19.50;;
28266;SDS011;15525;45.568;5.448;2022-12-11T10:58:33;52.60;;;19.92;;
28266;SDS011;15525;45.568;5.448;2022-12-11T11:01:13;52.03;;;20.45;;
28266;SDS011;15525;45.568;5.448;2022-12-11T11:04:01;50.95;;;19.15;;
28266;SDS011;15525;45.568;5.448;2022-12-11T11:06:26;53.60;;;19.90;;
28266;SDS011;15525;45.568;5.448;2022-12-11T11:08:52;49.17;;;18.77;;
28266;SDS011;15525;45.568;5.448;2022-12-11T11:13:50;48.65;;;18.63;;
28266;SDS011;15525;45.568;5.448;2022-12-11T11:16:17;50.00;;;18.63;;
28266;SDS011;15525;45.568;5.448;2022-12-11T11:18:51;52.05;;;18.63;;
28266;SDS011;15525;45.568;5.448;2022-12-11T11:21:20;50.13;;;19.27;;
28266;SDS011;15525;45.568;5.448;2022-12-11T11:23:48;47.83;;;19.88;;
28266;SDS011;15525;45.568;5.448;2022-12-11T11:26:15;52.88;;;20.98;;
28266;SDS011;15525;45.568;5.448;2022-12-11T11:28:41;57.20;;;21.38;;
28266;SDS011;15525;45.568;5.448;2022-12-11T11:31:13;52.40;;;20.92;;
28266;SDS011;15525;45.568;5.448;2022-12-11T11:33:56;51.55;;;20.42;;
28266;SDS011;15525;45.568;5.448;2022-12-11T11:36:28;52.50;;;20.50;;
28266;SDS011;15525;45.568;5.448;2022-12-11T11:41:33;52.88;;;20.80;;
28266;SDS011;15525;45.568;5.448;2022-12-11T11:44:09;56.45;;;21.90;;
28266;SDS011;15525;45.568;5.448;2022-12-11T11:46:41;55.33;;;22.73;;
28266;SDS011;15525;45.568;5.448;2022-12-11T11:51:50;54.63;;;21.73;;
28266;SDS011;15525;45.568;5.448;2022-12-11T11:54:29;57.03;;;21.67;;
28266;SDS011;15525;45.568;5.448;2022-12-11T11:57:10;58.97;;;21.85;;
28266;SDS011;15525;45.568;5.448;2022-12-11T11:59:43;54.92;;;21.35;;
28266;SDS011;15525;45.568;5.448;2022-12-11T12:02:14;57.53;;;21.70;;
28266;SDS011;15525;45.568;5.448;2022-12-11T12:04:42;66.05;;;23.33;;
28266;SDS011;15525;45.568;5.448;2022-12-11T12:07:14;60.55;;;22.45;;
28266;SDS011;15525;45.568;5.448;2022-12-11T12:33:41;56.70;;;21.15;;
28266;SDS011;15525;45.568;5.448;2022-12-11T12:36:17;54.08;;;20.05;;
28266;SDS011;15525;45.568;5.448;2022-12-11T12:39:02;57.63;;;20.55;;
28266;SDS011;15525;45.568;5.448;2022-12-11T12:44:41;53.67;;;20.92;;
28266;SDS011;15525;45.568;5.448;2022-12-11T12:47:11;54.55;;;19.63;;
28266;SDS011;15525;45.568;5.448;2022-12-11T12:49:49;52.17;;;20.02;;
28266;SDS011;15525;45.568;5.448;2022-12-11T12:52:18;56.47;;;20.38;;
28266;SDS011;15525;45.568;5.448;2022-12-11T12:54:45;52.53;;;19.67;;
28266;SDS011;15525;45.568;5.448;2022-12-11T12:57:34;51.72;;;19.85;;
28266;SDS011;15525;45.568;5.448;2022-12-11T13:00:02;59.33;;;20.77;;
28266;SDS011;15525;45.568;5.448;2022-12-11T13:02:29;51.67;;;19.02;;
28266;SDS011;15525;45.568;5.448;2022-12-11T13:04:55;48.30;;;19.55;;
28266;SDS011;15525;45.568;5.448;2022-12-11T13:07:28;54.42;;;20.30;;
28266;SDS011;15525;45.568;5.448;2022-12-11T13:10:06;57.30;;;20.92;;
28266;SDS011;15525;45.568;5.448;2022-12-11T13:12:47;57.20;;;21.17;;
28266;SDS011;15525;45.568;5.448;2022-12-11T13:20:58;53.28;;;20.63;;
28266;SDS011;15525;45.568;5.448;2022-12-11T13:23:26;52.55;;;19.50;;
28266;SDS011;15525;45.568;5.448;2022-12-11T13:25:55;48.78;;;19.40;;
28266;SDS011;15525;45.568;5.448;2022-12-11T13:28:29;58.53;;;21.85;;
28266;SDS011;15525;45.568;5.448;2022-12-11T13:33:48;60.22;;;21.83;;
28266;SDS011;15525;45.568;5.448;2022-12-11T13:38:46;56.55;;;21.25;;
28266;SDS011;15525;45.568;5.448;2022-12-11T13:41:15;53.35;;;19.45;;
28266;SDS011;15525;45.568;5.448;2022-12-11T13:43:42;58.60;;;20.48;;
28266;SDS011;15525;45.568;5.448;2022-12-11T13:46:11;57.20;;;21.42;;
28266;SDS011;15525;45.568;5.448;2022-12-11T13:48:45;59.10;;;20.63;;
28266;SDS011;15525;45.568;5.448;2022-12-11T13:51:15;55.58;;;21.05;;
28266;SDS011;15525;45.568;5.448;2022-12-11T13:53:42;54.72;;;20.52;;
28266;SDS011;15525;45.568;5.448;2022-12-11T13:56:17;57.47;;;21.52;;
28266;SDS011;15525;45.568;5.448;2022-12-11T13:58:44;58.25;;;21.15;;
28266;SDS011;15525;45.568;5.448;2022-12-11T14:01:14;56.97;;;21.67;;
28266;SDS011;15525;45.568;5.448;2022-12-11T14:03:49;63.55;;;22.80;;
28266;SDS011;15525;45.568;5.448;2022-12-11T14:06:17;60.97;;;22.98;;
28266;SDS011;15525;45.568;5.448;2022-12-11T14:08:42;55.97;;;21.30;;
28266;SDS011;15525;45.568;5.448;2022-12-11T14:11:14;56.85;;;21.58;;
28266;SDS011;15525;45.568;5.448;2022-12-11T14:13:46;57.97;;;22.75;;
28266;SDS011;15525;45.568;5.448;2022-12-11T14:16:21;60.28;;;22.02;;
28266;SDS011;15525;45.568;5.448;2022-12-11T14:18:49;57.03;;;20.88;;
28266;SDS011;15525;45.568;5.448;2022-12-11T14:21:17;61.00;;;21.58;;
28266;SDS011;15525;45.568;5.448;2022-12-11T14:23:50;51.33;;;21.45;;
28266;SDS011;15525;45.568;5.448;2022-12-11T14:26:21;59.45;;;21.83;;
28266;SDS011;15525;45.568;5.448;2022-12-11T14:28:48;55.67;;;21.05;;
28266;SDS011;15525;45.568;5.448;2022-12-11T14:31:20;54.33;;;20.50;;
28266;SDS011;15525;45.568;5.448;2022-12-11T14:33:51;56.53;;;21.17;;
28266;SDS011;15525;45.568;5.448;2022-12-11T14:36:22;59.28;;;20.88;;
28266;SDS011;15525;45.568;5.448;2022-12-11T14:38:48;52.17;;;20.38;;
28266;SDS011;15525;45.568;5.448;2022-12-11T14:41:28;54.55;;;21.85;;
28266;SDS011;15525;45.568;5.448;2022-12-11T14:44:03;56.38;;;21.73;;
28266;SDS011;15525;45.568;5.448;2022-12-11T14:49:31;55.90;;;20.98;;
28266;SDS011;15525;45.568;5.448;2022-12-11T14:51:58;51.53;;;20.35;;
28266;SDS011;15525;45.568;5.448;2022-12-11T14:56:50;59.78;;;21.75;;
28266;SDS011;15525;45.568;5.448;2022-12-11T14:59:22;58.80;;;20.92;;
28266;SDS011;15525;45.568;5.448;2022-12-11T15:01:57;60.22;;;21.63;;
28266;SDS011;15525;45.568;5.448;2022-12-11T15:04:28;63.40;;;22.00;;
28266;SDS011;15525;45.568;5.448;2022-12-11T15:06:55;60.40;;;22.48;;
28266;SDS011;15525;45.568;5.448;2022-12-11T15:09:28;58.63;;;22.55;;
28266;SDS011;15525;45.568;5.448;2022-12-11T15:12:15;62.15;;;23.23;;
28266;SDS011;15525;45.568;5.448;2022-12-11T15:14:55;59.05;;;20.65;;
28266;SDS011;15525;45.568;5.448;2022-12-11T15:17:27;59.80;;;21.55;;
28266;SDS011;15525;45.568;5.448;2022-12-11T15:19:55;54.42;;;20.67;;
28266;SDS011;15525;45.568;5.448;2022-12-11T15:22:28;51.67;;;21.48;;
28266;SDS011;15525;45.568;5.448;2022-12-11T15:24:56;63.22;;;22.08;;
28266;SDS011;15525;45.568;5.448;2022-12-11T15:27:29;55.90;;;21.52;;
28266;SDS011;15525;45.568;5.448;2022-12-11T15:30:19;57.92;;;22.27;;
28266;SDS011;15525;45.568;5.448;2022-12-11T15:35:37;54.97;;;20.23;;
28266;SDS011;15525;45.568;5.448;2022-12-11T15:38:03;59.63;;;21.55;;
28266;SDS011;15525;45.568;5.448;2022-12-11T15:40:29;56.60;;;21.00;;
28266;SDS011;15525;45.568;5.448;2022-12-11T15:42:55;59.05;;;21.70;;
28266;SDS011;15525;45.568;5.448;2022-12-11T15:45:25;56.13;;;21.98;;
28266;SDS011;15525;45.568;5.448;2022-12-11T15:47:54;59.63;;;22.77;;
28266;SDS011;15525;45.568;5.448;2022-12-11T15:50:22;60.95;;;21.95;;